createdAt,value
2018-04-07T00:01:33.280Z,69.40
2018-04-07T00:04:00.812Z,69.60
2018-04-07T00:06:28.361Z,69.50
2018-04-07T00:08:55.880Z,69.30
2018-04-07T00:11:23.425Z,69.50
2018-04-07T00:13:50.939Z,69.40
2018-04-07T00:16:18.481Z,70.30
2018-04-07T00:18:46.003Z,69.60
2018-04-07T00:21:13.542Z,69.80
2018-04-07T00:23:41.062Z,69.60
2018-04-07T00:26:08.597Z,70.30
2018-04-07T00:28:36.105Z,69.70
2018-04-07T00:31:03.641Z,70.70
2018-04-07T00:33:31.166Z,70.70
2018-04-07T00:35:58.729Z,70.80
2018-04-07T00:38:27.029Z,70.80
2018-04-07T00:40:54.575Z,70.80
2018-04-07T00:43:22.086Z,70.80
2018-04-07T00:45:50.309Z,70.40
2018-04-07T00:48:17.822Z,70.90
2018-04-07T00:50:45.369Z,71.50
2018-04-07T00:53:12.901Z,70.70
2018-04-07T00:55:40.433Z,71.20
2018-04-07T00:58:07.968Z,72.20
2018-04-07T01:00:35.493Z,72.80
2018-04-07T01:03:03.018Z,71.30
2018-04-07T01:05:30.544Z,70.60
2018-04-07T01:07:58.073Z,70.10
2018-04-07T01:10:25.608Z,69.80
2018-04-07T01:12:53.158Z,69.40
2018-04-07T01:15:20.677Z,69.10
2018-04-07T01:17:48.197Z,69.00
2018-04-07T01:20:16.600Z,68.40
2018-04-07T01:22:44.128Z,68.00
2018-04-07T01:25:11.665Z,67.60
2018-04-07T01:27:39.213Z,67.70
2018-04-07T01:30:06.737Z,67.70
2018-04-07T01:32:34.602Z,67.80
2018-04-07T01:35:02.113Z,67.90
2018-04-07T01:37:29.636Z,67.60
2018-04-07T01:39:57.145Z,67.50
2018-04-07T01:42:24.682Z,67.10
2018-04-07T01:44:52.190Z,67.10
2018-04-07T01:47:19.769Z,67.40
2018-04-07T01:49:47.285Z,67.50
2018-04-07T01:52:14.818Z,67.40
2018-04-07T01:54:43.117Z,67.50
2018-04-07T01:57:10.648Z,67.40
2018-04-07T01:59:38.178Z,67.40
2018-04-07T02:02:05.748Z,67.80
2018-04-07T02:04:33.277Z,68.30
2018-04-07T02:07:00.806Z,69.70
2018-04-07T02:09:28.341Z,70.10
2018-04-07T02:11:55.858Z,68.50
2018-04-07T02:14:23.396Z,68.30
2018-04-07T02:16:50.920Z,69.70
2018-04-07T02:19:18.467Z,69.50
2018-04-07T02:21:45.980Z,70.80
2018-04-07T02:24:13.509Z,69.00
2018-04-07T02:26:41.032Z,69.80
2018-04-07T02:29:08.606Z,70.70
2018-04-07T02:31:36.123Z,70.50
2018-04-07T02:34:03.659Z,70.20
2018-04-07T02:36:31.175Z,70.40
2018-04-07T02:38:58.709Z,70.30
2018-04-07T02:41:26.227Z,69.70
2018-04-07T02:43:53.767Z,70.00
2018-04-07T02:46:21.298Z,69.70
2018-04-07T02:48:49.068Z,70.00
2018-04-07T02:51:16.593Z,69.60
2018-04-07T02:53:44.130Z,69.70
2018-04-07T02:56:11.642Z,70.50
2018-04-07T02:58:39.177Z,70.40
2018-04-07T03:01:06.714Z,69.60
2018-04-07T03:03:35.022Z,69.40
2018-04-07T03:06:02.549Z,69.30
2018-04-07T03:08:30.857Z,68.90
2018-04-07T03:10:58.377Z,68.90
2018-04-07T03:13:26.679Z,68.80
2018-04-07T03:15:54.203Z,68.80
2018-04-07T03:18:22.517Z,68.30
2018-04-07T03:20:50.075Z,69.00
2018-04-07T03:23:17.593Z,68.00
2018-04-07T03:25:45.161Z,68.90
2018-04-07T03:28:12.674Z,68.90
2018-04-07T03:30:40.226Z,68.70
2018-04-07T03:33:07.773Z,68.40
2018-04-07T03:35:35.313Z,68.20
2018-04-07T03:38:02.858Z,68.40
2018-04-07T03:40:31.169Z,69.00
2018-04-07T03:42:58.695Z,69.00
2018-04-07T03:45:26.228Z,69.40
2018-04-07T03:47:53.749Z,69.80
2018-04-07T03:50:22.318Z,69.50
2018-04-07T03:52:49.837Z,68.80
2018-04-07T03:55:17.377Z,68.60
2018-04-07T03:57:44.902Z,69.10
2018-04-07T04:00:12.448Z,68.90
2018-04-07T04:02:40.005Z,68.10
2018-04-07T04:05:07.555Z,68.20
2018-04-07T04:07:35.072Z,67.90
2018-04-07T04:10:02.602Z,67.30
2018-04-07T04:12:30.224Z,67.50
2018-04-07T04:14:57.756Z,67.40
2018-04-07T04:17:26.045Z,67.80
2018-04-07T04:19:53.582Z,67.80
2018-04-07T04:22:21.871Z,67.90
2018-04-07T04:24:49.405Z,68.60
2018-04-07T04:27:16.925Z,68.00
2018-04-07T04:29:44.470Z,67.50
2018-04-07T04:32:12.001Z,67.50
2018-04-07T04:34:39.756Z,67.50
2018-04-07T04:37:07.302Z,67.50
2018-04-07T04:39:34.816Z,67.00
2018-04-07T04:42:02.345Z,67.00
2018-04-07T04:44:29.865Z,66.40
2018-04-07T04:46:57.408Z,66.30
2018-04-07T04:49:24.931Z,65.20
2018-04-07T04:51:52.500Z,65.30
2018-04-07T04:54:20.025Z,64.40
2018-04-07T04:56:47.553Z,64.20
2018-04-07T04:59:15.064Z,64.00
2018-04-07T05:01:42.613Z,63.30
2018-04-07T05:04:10.143Z,63.40
2018-04-07T05:06:37.688Z,62.70
2018-04-07T05:09:06.030Z,61.90
2018-04-07T05:11:33.567Z,61.60
2018-04-07T05:14:01.105Z,61.30
2018-04-07T05:16:28.654Z,61.00
2018-04-07T05:18:56.958Z,60.40
2018-04-07T05:21:24.523Z,60.40
2018-04-07T05:23:52.048Z,60.60
2018-04-07T05:26:20.357Z,60.10
2018-04-07T05:28:47.869Z,60.00
2018-04-07T05:31:16.166Z,59.70
2018-04-07T05:33:43.681Z,59.60
2018-04-07T05:36:12.013Z,59.00
2018-04-07T05:38:39.535Z,59.00
2018-04-07T05:41:07.851Z,58.30
2018-04-07T05:43:35.361Z,58.30
2018-04-07T05:46:03.808Z,58.70
2018-04-07T05:48:31.331Z,58.60
2018-04-07T05:50:58.934Z,57.50
2018-04-07T05:53:26.515Z,58.30
2018-04-07T05:55:54.041Z,57.00
2018-04-07T05:58:21.630Z,56.10
2018-04-07T06:00:49.145Z,56.50
2018-04-07T06:03:16.681Z,55.70
2018-04-07T06:05:44.240Z,56.10
2018-04-07T06:08:11.782Z,54.60
2018-04-07T06:10:40.061Z,54.00
2018-04-07T06:13:07.601Z,54.00
2018-04-07T06:15:35.911Z,53.60
2018-04-07T06:18:03.452Z,53.50
2018-04-07T06:20:30.982Z,53.00
2018-04-07T06:22:58.526Z,52.20
2018-04-07T06:25:26.066Z,51.90
2018-04-07T06:27:53.620Z,52.00
2018-04-07T06:30:21.142Z,51.10
2018-04-07T06:32:48.673Z,50.80
2018-04-07T06:35:16.960Z,50.80
2018-04-07T06:37:44.492Z,50.80
2018-04-07T06:40:12.073Z,49.20
2018-04-07T06:42:40.369Z,48.50
2018-04-07T06:45:07.890Z,48.40
2018-04-07T06:47:35.432Z,47.70
2018-04-07T06:50:03.018Z,48.10
2018-04-07T06:52:30.561Z,45.70
2018-04-07T06:54:58.077Z,45.00
2018-04-07T06:57:25.622Z,45.10
2018-04-07T06:59:53.161Z,41.00
2018-04-07T07:02:20.750Z,38.90
2018-04-07T07:04:48.317Z,35.10
2018-04-07T07:07:15.841Z,36.20
2018-04-07T07:09:43.391Z,35.20
2018-04-07T07:12:11.686Z,33.80
2018-04-07T07:14:39.258Z,33.80
2018-04-07T07:17:06.785Z,32.10
2018-04-07T07:19:35.106Z,27.00
2018-04-07T07:22:02.626Z,27.00
2018-04-07T07:24:30.171Z,25.00
2018-04-07T07:26:57.697Z,22.10
2018-04-07T07:29:25.260Z,21.30
2018-04-07T07:31:52.805Z,20.10
2018-04-07T07:34:20.345Z,19.50
2018-04-07T07:36:47.878Z,20.30
2018-04-07T07:39:15.412Z,19.90
2018-04-07T07:41:42.931Z,19.90
2018-04-07T07:44:10.472Z,20.30
2018-04-07T07:46:37.998Z,19.60
2018-04-07T07:49:05.542Z,19.20
2018-04-07T07:51:33.840Z,19.00
2018-04-07T07:54:01.389Z,18.90
2018-04-07T07:56:28.954Z,18.70
2018-04-07T07:58:56.505Z,17.80
2018-04-07T08:01:24.024Z,16.90
2018-04-07T08:03:51.561Z,15.60
2018-04-07T08:06:19.081Z,17.20
2018-04-07T08:08:46.642Z,16.00
2018-04-07T08:11:14.171Z,16.20
2018-04-07T08:13:41.697Z,16.40
2018-04-07T08:16:09.245Z,16.10
2018-04-07T08:18:36.771Z,14.90
2018-04-07T08:21:04.304Z,14.20
2018-04-07T08:23:31.824Z,13.90
2018-04-07T08:25:59.373Z,13.00
2018-04-07T08:28:27.885Z,13.20
2018-04-07T08:30:55.429Z,13.50
2018-04-07T08:33:22.960Z,13.00
2018-04-07T08:35:51.281Z,13.20
2018-04-07T08:38:18.802Z,13.20
2018-04-07T08:40:46.347Z,12.60
2018-04-07T08:43:13.880Z,12.90
2018-04-07T08:45:41.443Z,12.80
2018-04-07T08:48:08.966Z,12.90
2018-04-07T08:50:36.514Z,12.70
2018-04-07T08:53:04.079Z,12.40
2018-04-07T08:55:31.617Z,13.30
2018-04-07T08:57:59.133Z,14.40
2018-04-07T09:00:26.668Z,14.80
2018-04-07T09:02:54.186Z,14.70
2018-04-07T09:05:21.718Z,15.40
2018-04-07T09:07:49.249Z,16.20
2018-04-07T09:10:16.797Z,15.50
2018-04-07T09:12:45.082Z,14.70
2018-04-07T09:15:13.400Z,14.80
2018-04-07T09:17:40.930Z,14.80
2018-04-07T09:20:08.460Z,15.20
2018-04-07T09:22:35.980Z,16.10
2018-04-07T09:25:03.522Z,16.60
2018-04-07T09:27:31.052Z,15.00
2018-04-07T09:29:58.590Z,15.10
2018-04-07T09:32:26.883Z,16.10
2018-04-07T09:34:54.426Z,16.60
2018-04-07T09:37:22.085Z,15.40
2018-04-07T09:39:50.380Z,17.00
2018-04-07T09:42:17.917Z,17.00
2018-04-07T09:44:46.214Z,16.50
2018-04-07T09:47:13.751Z,16.50
2018-04-07T09:49:42.058Z,17.00
2018-04-07T09:52:09.613Z,17.00
2018-04-07T09:54:37.137Z,17.60
2018-04-07T09:57:04.695Z,16.80
2018-04-07T09:59:32.225Z,18.00
2018-04-07T10:01:59.775Z,17.50
2018-04-07T10:04:27.294Z,18.10
2018-04-07T10:06:54.830Z,20.00
2018-04-07T10:09:22.353Z,21.50
2018-04-07T10:11:49.917Z,22.80
2018-04-07T10:14:19.179Z,23.70
2018-04-07T10:16:48.373Z,24.20
2018-04-07T10:19:15.893Z,24.00
2018-04-07T10:21:44.209Z,24.00
2018-04-07T10:24:11.732Z,23.90
2018-04-07T10:26:40.041Z,24.60
2018-04-07T10:29:07.556Z,24.70
2018-04-07T10:31:35.118Z,24.80
2018-04-07T10:34:02.649Z,24.30
2018-04-07T10:36:30.195Z,23.60
2018-04-07T10:38:57.715Z,24.00
2018-04-07T10:41:25.263Z,23.80
2018-04-07T10:43:52.793Z,24.60
2018-04-07T10:46:20.329Z,23.90
2018-04-07T10:48:47.855Z,23.80
2018-04-07T10:51:15.384Z,24.10
2018-04-07T10:53:42.901Z,23.30
2018-04-07T10:56:10.430Z,23.00
2018-04-07T10:58:38.656Z,22.40
2018-04-07T11:01:06.230Z,23.10
2018-04-07T11:03:33.776Z,22.70
2018-04-07T11:06:02.102Z,22.20
2018-04-07T11:08:29.630Z,22.10
2018-04-07T11:10:57.950Z,22.50
2018-04-07T11:13:25.480Z,22.60
2018-04-07T11:15:53.026Z,23.00
2018-04-07T11:18:20.537Z,23.90
2018-04-07T11:20:48.059Z,23.10
2018-04-07T11:23:15.593Z,23.50
2018-04-07T11:25:43.923Z,22.80
2018-04-07T11:28:11.455Z,22.80
2018-04-07T11:30:38.978Z,22.70
2018-04-07T11:33:07.277Z,23.60
2018-04-07T11:35:34.793Z,23.50
2018-04-07T11:38:02.793Z,23.30
2018-04-07T11:40:31.076Z,23.70
2018-04-07T11:42:58.629Z,23.60
2018-04-07T11:45:26.161Z,22.90
2018-04-07T11:47:53.700Z,22.80
2018-04-07T11:50:21.248Z,22.30
2018-04-07T11:52:48.798Z,22.80
2018-04-07T11:55:16.322Z,22.50
2018-04-07T11:57:43.853Z,23.90
2018-04-07T12:00:12.217Z,23.50
2018-04-07T12:02:39.804Z,22.90
2018-04-07T12:05:07.297Z,23.80
2018-04-07T12:07:35.181Z,23.40
2018-04-07T12:10:02.701Z,23.40
2018-04-07T12:12:30.274Z,24.00
2018-04-07T12:14:57.797Z,23.20
2018-04-07T12:17:25.357Z,22.80
2018-04-07T12:19:52.881Z,23.10
2018-04-07T12:22:20.424Z,22.70
2018-04-07T12:24:47.955Z,23.20
2018-04-07T12:27:15.482Z,23.50
2018-04-07T12:29:42.994Z,25.10
2018-04-07T12:32:10.539Z,23.90
2018-04-07T12:34:38.062Z,22.00
2018-04-07T12:37:06.374Z,23.70
2018-04-07T12:39:33.903Z,23.20
2018-04-07T12:42:01.442Z,23.40
2018-04-07T12:44:28.964Z,23.50
2018-04-07T12:46:57.256Z,23.80
2018-04-07T12:49:24.774Z,23.80
2018-04-07T12:51:52.323Z,23.40
2018-04-07T12:54:19.845Z,23.10
2018-04-07T12:56:47.394Z,23.80
2018-04-07T12:59:14.913Z,23.70
2018-04-07T13:01:42.425Z,24.10
2018-04-07T13:04:10.723Z,24.60
2018-04-07T13:06:38.248Z,24.60
2018-04-07T13:09:06.569Z,23.00
2018-04-07T13:11:34.089Z,23.00
2018-04-07T13:14:02.397Z,24.50
2018-04-07T13:16:29.922Z,24.50
2018-04-07T13:18:58.245Z,23.40
2018-04-07T13:21:25.777Z,23.30
2018-04-07T13:23:53.309Z,23.90
2018-04-07T13:26:20.829Z,23.80
2018-04-07T13:28:48.377Z,23.70
2018-04-07T13:31:15.899Z,24.60
2018-04-07T13:33:43.439Z,24.10
2018-04-07T13:36:10.997Z,24.50
2018-04-07T13:38:38.538Z,23.50
2018-04-07T13:41:06.069Z,23.70
2018-04-07T13:43:33.609Z,23.50
2018-04-07T13:46:01.125Z,24.00
2018-04-07T13:48:28.667Z,24.00
2018-04-07T13:50:56.218Z,23.50
2018-04-07T13:53:23.776Z,24.00
2018-04-07T13:55:51.300Z,22.90
2018-04-07T13:58:18.844Z,23.50
2018-04-07T14:00:46.360Z,23.60
2018-04-07T14:03:13.894Z,24.80
2018-04-07T14:05:42.110Z,24.80
2018-04-07T14:08:10.405Z,23.40
2018-04-07T14:10:37.933Z,23.40
2018-04-07T14:13:06.250Z,23.60
2018-04-07T14:15:33.782Z,24.10
2018-04-07T14:18:01.311Z,24.00
2018-04-07T14:20:28.858Z,23.60
2018-04-07T14:22:56.390Z,23.70
2018-04-07T14:25:23.937Z,23.60
2018-04-07T14:27:51.469Z,24.30
2018-04-07T14:30:19.014Z,23.90
2018-04-07T14:32:47.296Z,24.80
2018-04-07T14:35:14.849Z,24.80
2018-04-07T14:37:43.137Z,25.50
2018-04-07T14:40:11.438Z,24.90
2018-04-07T14:42:38.961Z,24.90
2018-04-07T14:45:07.267Z,24.60
2018-04-07T14:47:34.799Z,24.70
2018-04-07T14:50:03.252Z,24.80
2018-04-07T14:52:30.769Z,24.80
2018-04-07T14:54:59.645Z,25.70
2018-04-07T14:57:27.170Z,25.10
2018-04-07T14:59:54.699Z,26.10
2018-04-07T15:02:22.222Z,25.60
2018-04-07T15:04:49.784Z,26.10
2018-04-07T15:07:17.325Z,26.20
2018-04-07T15:09:44.859Z,26.20
2018-04-07T15:12:13.154Z,26.00
2018-04-07T15:14:40.694Z,26.00
2018-04-07T15:17:08.243Z,26.20
2018-04-07T15:19:36.557Z,26.80
2018-04-07T15:22:04.073Z,26.70
2018-04-07T15:24:31.610Z,27.50
2018-04-07T15:26:59.184Z,26.80
2018-04-07T15:29:26.755Z,26.50
2018-04-07T15:31:54.319Z,27.10
2018-04-07T15:34:21.873Z,26.90
2018-04-07T15:36:49.410Z,26.90
2018-04-07T15:39:16.949Z,26.60
2018-04-07T15:41:44.474Z,26.80
2018-04-07T15:44:12.018Z,27.10
2018-04-07T15:46:40.325Z,27.40
2018-04-07T15:49:07.857Z,27.50
2018-04-07T15:51:35.401Z,27.90
2018-04-07T15:54:02.921Z,27.00
2018-04-07T15:56:30.506Z,27.00
2018-04-07T15:58:58.027Z,27.00
2018-04-07T16:01:25.609Z,27.60
2018-04-07T16:03:53.203Z,27.70
2018-04-07T16:06:21.506Z,27.80
2018-04-07T16:08:49.016Z,27.80
2018-04-07T16:11:16.553Z,28.60
2018-04-07T16:13:44.087Z,28.50
2018-04-07T16:16:11.630Z,28.70
2018-04-07T16:18:39.153Z,28.20
2018-04-07T16:21:06.685Z,27.70
2018-04-07T16:23:34.209Z,28.10
2018-04-07T16:26:01.748Z,28.60
2018-04-07T16:28:29.290Z,28.80
2018-04-07T16:30:57.610Z,28.80
2018-04-07T16:33:25.133Z,28.80
2018-04-07T16:35:53.442Z,29.00
2018-04-07T16:38:20.976Z,28.90
2018-04-07T16:40:48.534Z,29.30
2018-04-07T16:43:16.072Z,29.00
2018-04-07T16:45:43.605Z,29.20
2018-04-07T16:48:11.127Z,29.30
2018-04-07T16:50:38.652Z,29.70
2018-04-07T16:53:06.181Z,29.30
2018-04-07T16:55:33.709Z,29.60
2018-04-07T16:58:01.241Z,29.50
2018-04-07T17:00:28.771Z,30.00
2018-04-07T17:02:56.313Z,30.30
2018-04-07T17:05:23.839Z,30.80
2018-04-07T17:07:51.372Z,30.90
2018-04-07T17:10:18.902Z,31.40
2018-04-07T17:12:46.479Z,31.80
2018-04-07T17:15:14.024Z,31.50
2018-04-07T17:17:42.326Z,32.70
2018-04-07T17:20:09.846Z,32.70
2018-04-07T17:22:37.389Z,32.80
2018-04-07T17:25:04.923Z,32.50
2018-04-07T17:27:32.462Z,33.30
2018-04-07T17:29:59.998Z,33.20
2018-04-07T17:32:28.292Z,34.30
2018-04-07T17:34:55.815Z,34.10
2018-04-07T17:37:23.388Z,34.00
2018-04-07T17:39:50.926Z,34.10
2018-04-07T17:42:18.471Z,34.90
2018-04-07T17:44:46.013Z,34.60
2018-04-07T17:47:13.552Z,35.90
2018-04-07T17:49:43.734Z,36.00
2018-04-07T17:52:08.660Z,35.90
2018-04-07T17:54:36.173Z,36.20
2018-04-07T17:57:03.836Z,36.20
2018-04-07T17:59:31.517Z,37.00
2018-04-07T18:01:59.038Z,37.30
2018-04-07T18:04:26.565Z,37.20
2018-04-07T18:06:54.114Z,37.50
2018-04-07T18:09:21.693Z,38.00
2018-04-07T18:11:49.215Z,38.20
2018-04-07T18:14:16.761Z,38.40
2018-04-07T18:16:44.289Z,38.70
2018-04-07T18:19:11.829Z,39.00
2018-04-07T18:21:39.390Z,39.30
2018-04-07T18:24:06.952Z,40.20
2018-04-07T18:26:34.465Z,39.90
2018-04-07T18:29:02.007Z,40.10
2018-04-07T18:31:30.308Z,40.60
2018-04-07T18:33:57.851Z,40.50
2018-04-07T18:36:26.137Z,41.30
2018-04-07T18:38:53.708Z,41.30
2018-04-07T18:41:21.243Z,41.50
2018-04-07T18:43:48.779Z,41.50
2018-04-07T18:46:16.290Z,41.40
2018-04-07T18:48:43.828Z,42.00
2018-04-07T18:51:11.353Z,42.60
2018-04-07T18:53:38.881Z,43.30
2018-04-07T18:56:06.405Z,43.30
2018-04-07T18:58:33.957Z,43.50
2018-04-07T19:01:01.491Z,43.80
2018-04-07T19:03:29.033Z,44.00
2018-04-07T19:05:56.564Z,44.00
2018-04-07T19:08:24.105Z,44.10
2018-04-07T19:10:51.654Z,44.30
2018-04-07T19:13:19.186Z,45.90
2018-04-07T19:15:46.754Z,45.80
2018-04-07T19:18:14.290Z,45.80
2018-04-07T19:20:41.844Z,46.90
2018-04-07T19:23:09.368Z,46.80
2018-04-07T19:25:36.923Z,48.30
2018-04-07T19:28:04.845Z,47.60
2018-04-07T19:30:32.381Z,47.50
2018-04-07T19:32:59.908Z,47.70
2018-04-07T19:35:27.449Z,49.20
2018-04-07T19:37:54.978Z,49.00
2018-04-07T19:40:22.513Z,49.80
2018-04-07T19:42:50.042Z,50.20
2018-04-07T19:45:17.584Z,50.30
2018-04-07T19:47:45.114Z,50.90
2018-04-07T19:50:12.656Z,51.60
2018-04-07T19:52:41.063Z,52.40
2018-04-07T19:55:08.646Z,52.40
2018-04-07T19:57:36.166Z,51.50
2018-04-07T20:00:03.699Z,51.90
2018-04-07T20:02:31.217Z,52.20
2018-04-07T20:04:58.764Z,52.50
2018-04-07T20:07:26.285Z,53.30
2018-04-07T20:09:54.636Z,52.50
2018-04-07T20:12:22.161Z,53.60
2018-04-07T20:14:50.660Z,53.10
2018-04-07T20:17:18.180Z,54.20
2018-04-07T20:19:45.789Z,54.40
2018-04-07T20:22:14.106Z,56.00
2018-04-07T20:24:41.633Z,56.00
2018-04-07T20:27:09.187Z,56.30
2018-04-07T20:29:36.708Z,56.20
2018-04-07T20:32:04.277Z,56.00
2018-04-07T20:34:31.824Z,56.40
2018-04-07T20:36:59.379Z,56.30
2018-04-07T20:39:26.929Z,55.80
2018-04-07T20:41:54.476Z,55.60
2018-04-07T20:44:33.885Z,55.90
2018-04-07T20:47:02.208Z,56.00
2018-04-07T20:49:29.749Z,56.00
2018-04-07T20:51:57.304Z,56.30
2018-04-07T20:54:24.913Z,56.70
2018-04-07T20:56:52.448Z,56.70
2018-04-07T20:59:19.980Z,57.60
2018-04-07T21:01:47.555Z,57.90
2018-04-07T21:04:15.110Z,57.60
2018-04-07T21:06:42.669Z,58.00
2018-04-07T21:09:10.197Z,57.70
2018-04-07T21:11:37.737Z,58.10
2018-04-07T21:14:05.258Z,58.30
2018-04-07T21:16:32.801Z,59.30
2018-04-07T21:19:01.140Z,58.90
2018-04-07T21:21:28.657Z,58.90
2018-04-07T21:23:56.186Z,59.00
2018-04-07T21:26:23.725Z,60.00
2018-04-07T21:28:51.243Z,59.50
2018-04-07T21:31:18.776Z,59.30
2018-04-07T21:33:46.316Z,58.90
2018-04-07T21:36:13.944Z,58.70
2018-04-07T21:38:41.521Z,57.20
2018-04-07T21:41:09.033Z,56.40
2018-04-07T21:43:36.574Z,56.10
2018-04-07T21:46:04.110Z,55.40
2018-04-07T21:48:31.689Z,55.10
2018-04-07T21:50:59.205Z,54.90
2018-04-07T21:53:27.617Z,54.60
2018-04-07T21:55:55.133Z,53.90
2018-04-07T21:58:23.435Z,54.60
2018-04-07T22:00:50.953Z,54.50
2018-04-07T22:03:19.257Z,54.30
2018-04-07T22:05:46.783Z,54.30
2018-04-07T22:08:14.329Z,54.10
2018-04-07T22:10:41.866Z,54.30
2018-04-07T22:13:09.412Z,54.20
2018-04-07T22:15:36.946Z,54.20
2018-04-07T22:18:04.729Z,54.40
2018-04-07T22:20:32.252Z,54.60
2018-04-07T22:22:59.789Z,55.20
2018-04-07T22:25:27.306Z,54.30
2018-04-07T22:27:54.849Z,54.30
2018-04-07T22:30:22.408Z,54.50
2018-04-07T22:32:49.959Z,54.60
2018-04-07T22:35:17.490Z,54.70
2018-04-07T22:37:45.026Z,55.50
2018-04-07T22:40:12.537Z,55.50
2018-04-07T22:42:40.077Z,55.80
2018-04-07T22:45:07.592Z,56.00
2018-04-07T22:47:35.125Z,56.20
2018-04-07T22:50:02.650Z,56.50
2018-04-07T22:52:30.178Z,56.60
2018-04-07T22:54:57.730Z,56.60
2018-04-07T22:57:25.258Z,56.50
2018-04-07T22:59:52.799Z,56.40
2018-04-07T23:02:20.334Z,56.70
2018-04-07T23:04:48.643Z,57.40
2018-04-07T23:07:16.170Z,57.40
2018-04-07T23:09:44.470Z,57.70
2018-04-07T23:12:11.989Z,57.60
2018-04-07T23:14:40.288Z,57.60
2018-04-07T23:17:07.817Z,57.50
2018-04-07T23:19:36.137Z,57.70
2018-04-07T23:22:03.649Z,57.60
2018-04-07T23:24:32.014Z,58.10
2018-04-07T23:26:59.534Z,58.10
2018-04-07T23:29:27.069Z,58.10
2018-04-07T23:31:54.593Z,58.30
2018-04-07T23:34:22.146Z,58.30
2018-04-07T23:36:49.673Z,58.40
2018-04-07T23:39:17.205Z,58.40
2018-04-07T23:41:44.726Z,58.70
2018-04-07T23:44:12.265Z,58.50
2018-04-07T23:46:39.838Z,58.50
2018-04-07T23:49:07.380Z,58.90
2018-04-07T23:51:34.930Z,59.20
2018-04-07T23:54:02.474Z,59.40
2018-04-07T23:56:29.985Z,59.20
2018-04-07T23:58:58.282Z,59.60
